首页
METAR-TAF:

METAR-TAF

机场 :

喀山國際機場

喀山, 俄罗斯

纬度: 55-47N, 经度: 049-12E, 海拔: 125米

当前天气观测

该预报发布于39分钟前的11:00 UTC
风速14节,风向北转西北
温度 17°C
湿度 63%
气压 1009 hPa
能见度10公里或以上
多云层高于6000英尺, 积雨云.

METAR: UWKD 161100Z 33007MPS 9999 BKN060CB 17/10 Q1009 R29/2/0050 NOSIG RMK QFE746/0995

时间: 14:39 (11:39 UTC)

预报

该预报发布于3小时和39分钟前的08:00 UTC
预报有效从16日的 09点(UTC)到 17日的 09点(UTC)
风速10节,风向西转西北
能见度10公里或以上
多云层高于2000英尺
短暂存在
从 16日的 09点(UTC)到 16日的 21点(UTC)
风速12节,风向西北,有时为23节阵风
能見度: 5000
散云层高于3300英尺, 积雨云.
小阵雨
短暂存在
从 16日的 21点(UTC)到 17日的 05点(UTC)
风速6节,风向西
能見度: 4000
散云层高于1100英尺
轻雾

TAF: UWKD 160800Z 1609/1709 30005MPS 9999 BKN020 TX21/1612Z TN10/1701Z TEMPO 1609/1621 32006G12MPS 5000 -SHRA SCT033CB TEMPO 1621/1705 27003MPS 4000 BR SCT011

超过4000个机场的气象观测和天气预报(METAR&TAF报告)。

可查询的气象台以黄色和红色小点在地图上表示。

将鼠标移到小点上方,可查看气象台名称。

然后点击查看天气观测和预报。

如需切换地图:点击带黑十字的绿色按钮放大地图;点击带横线的绿色按钮缩小地图;或者点击绿色箭头查看邻近地区的地图。


METAR-TAF: